sensor_id;sensor_type;location;lat;lon;timestamp;pressure;altitude;pressure_sealevel;temperature;humidity
33506;BME280;19843;51.040;13.782;2023-07-13T00:02:16;99972.13;;;22.59;54.57
33506;BME280;19843;51.040;13.782;2023-07-13T00:04:46;99964.03;;;22.58;54.72
33506;BME280;19843;51.040;13.782;2023-07-13T00:07:13;99958.84;;;22.53;56.04
33506;BME280;19843;51.040;13.782;2023-07-13T00:09:41;99964.56;;;22.26;57.53
33506;BME280;19843;51.040;13.782;2023-07-13T00:12:23;99976.19;;;22.35;57.14
33506;BME280;19843;51.040;13.782;2023-07-13T00:14:50;99975.22;;;22.45;56.54
33506;BME280;19843;51.040;13.782;2023-07-13T00:17:18;99987.34;;;22.49;55.22
33506;BME280;19843;51.040;13.782;2023-07-13T00:19:46;99988.28;;;22.42;56.47
33506;BME280;19843;51.040;13.782;2023-07-13T00:22:14;99996.47;;;22.10;58.57
33506;BME280;19843;51.040;13.782;2023-07-13T00:24:42;99993.34;;;22.01;58.24
33506;BME280;19843;51.040;13.782;2023-07-13T00:27:09;100000.50;;;22.12;59.48
33506;BME280;19843;51.040;13.782;2023-07-13T00:29:37;100006.00;;;22.27;59.27
33506;BME280;19843;51.040;13.782;2023-07-13T00:32:06;100020.00;;;22.14;60.25
33506;BME280;19843;51.040;13.782;2023-07-13T00:34:36;100032.75;;;22.29;59.87
33506;BME280;19843;51.040;13.782;2023-07-13T00:37:06;100041.19;;;22.06;58.56
33506;BME280;19843;51.040;13.782;2023-07-13T00:39:34;100053.16;;;21.93;62.20
33506;BME280;19843;51.040;13.782;2023-07-13T00:42:03;100063.31;;;21.60;67.15
33506;BME280;19843;51.040;13.782;2023-07-13T00:44:31;100071.38;;;21.28;65.56
33506;BME280;19843;51.040;13.782;2023-07-13T00:46:58;100076.25;;;21.23;67.73
33506;BME280;19843;51.040;13.782;2023-07-13T00:49:27;100083.72;;;20.58;72.31
33506;BME280;19843;51.040;13.782;2023-07-13T00:51:59;100082.63;;;20.38;76.25
33506;BME280;19843;51.040;13.782;2023-07-13T00:54:31;100078.41;;;20.67;73.90
33506;BME280;19843;51.040;13.782;2023-07-13T00:57:03;100067.28;;;20.87;72.28
33506;BME280;19843;51.040;13.782;2023-07-13T00:59:31;100056.22;;;21.00;72.15
33506;BME280;19843;51.040;13.782;2023-07-13T01:02:00;100060.69;;;20.97;72.93
33506;BME280;19843;51.040;13.782;2023-07-13T01:04:29;100053.44;;;20.41;74.13
33506;BME280;19843;51.040;13.782;2023-07-13T01:06:57;100029.84;;;20.62;74.58
33506;BME280;19843;51.040;13.782;2023-07-13T01:09:26;99999.16;;;19.94;78.00
33506;BME280;19843;51.040;13.782;2023-07-13T01:11:55;99993.88;;;19.92;79.11
33506;BME280;19843;51.040;13.782;2023-07-13T01:14:23;99992.28;;;19.88;79.02
33506;BME280;19843;51.040;13.782;2023-07-13T01:16:51;100003.94;;;20.04;80.32
33506;BME280;19843;51.040;13.782;2023-07-13T01:19:26;100012.38;;;20.08;83.33
33506;BME280;19843;51.040;13.782;2023-07-13T01:22:05;100021.72;;;19.03;88.48
33506;BME280;19843;51.040;13.782;2023-07-13T01:24:35;100031.03;;;18.57;93.51
33506;BME280;19843;51.040;13.782;2023-07-13T01:27:04;100035.88;;;18.67;95.74
33506;BME280;19843;51.040;13.782;2023-07-13T01:29:34;100026.13;;;19.22;92.44
33506;BME280;19843;51.040;13.782;2023-07-13T01:32:09;100018.31;;;19.61;87.64
33506;BME280;19843;51.040;13.782;2023-07-13T01:34:37;100022.34;;;19.60;87.51
33506;BME280;19843;51.040;13.782;2023-07-13T01:37:11;100028.00;;;19.60;87.68
33506;BME280;19843;51.040;13.782;2023-07-13T01:39:39;100023.38;;;18.54;98.82
33506;BME280;19843;51.040;13.782;2023-07-13T01:42:07;100028.19;;;18.25;98.35
33506;BME280;19843;51.040;13.782;2023-07-13T01:44:35;100036.69;;;18.39;97.14
33506;BME280;19843;51.040;13.782;2023-07-13T01:47:02;100030.19;;;19.13;94.84
33506;BME280;19843;51.040;13.782;2023-07-13T01:49:30;100039.41;;;19.32;90.66
33506;BME280;19843;51.040;13.782;2023-07-13T01:51:58;100041.81;;;19.48;91.87
33506;BME280;19843;51.040;13.782;2023-07-13T01:54:26;100036.13;;;19.62;90.47
33506;BME280;19843;51.040;13.782;2023-07-13T01:56:54;100026.81;;;19.58;91.65
33506;BME280;19843;51.040;13.782;2023-07-13T01:59:21;100017.53;;;19.61;91.19
33506;BME280;19843;51.040;13.782;2023-07-13T02:01:49;100016.69;;;19.60;91.37
33506;BME280;19843;51.040;13.782;2023-07-13T02:04:16;100011.94;;;19.29;94.02
33506;BME280;19843;51.040;13.782;2023-07-13T02:06:44;100010.28;;;19.42;93.67
33506;BME280;19843;51.040;13.782;2023-07-13T02:09:11;100017.50;;;19.54;90.22
33506;BME280;19843;51.040;13.782;2023-07-13T02:11:40;100016.81;;;19.25;89.45
33506;BME280;19843;51.040;13.782;2023-07-13T02:14:07;100017.50;;;19.54;91.34
33506;BME280;19843;51.040;13.782;2023-07-13T02:16:35;100019.13;;;19.55;88.92
33506;BME280;19843;51.040;13.782;2023-07-13T02:19:03;100023.13;;;19.72;86.81
33506;BME280;19843;51.040;13.782;2023-07-13T02:21:30;100019.28;;;19.15;90.03
33506;BME280;19843;51.040;13.782;2023-07-13T02:23:58;100009.63;;;18.95;93.35
33506;BME280;19843;51.040;13.782;2023-07-13T02:26:26;100019.22;;;19.30;93.27
33506;BME280;19843;51.040;13.782;2023-07-13T02:28:55;100024.84;;;19.44;89.46
33506;BME280;19843;51.040;13.782;2023-07-13T02:31:22;100022.84;;;19.30;89.53
33506;BME280;19843;51.040;13.782;2023-07-13T02:33:50;100026.47;;;19.38;93.42
33506;BME280;19843;51.040;13.782;2023-07-13T02:36:17;100032.59;;;19.15;96.19
33506;BME280;19843;51.040;13.782;2023-07-13T02:38:46;100029.00;;;19.04;95.51
33506;BME280;19843;51.040;13.782;2023-07-13T02:41:14;100032.25;;;18.95;95.90
33506;BME280;19843;51.040;13.782;2023-07-13T02:43:41;100032.94;;;19.35;94.61
33506;BME280;19843;51.040;13.782;2023-07-13T02:46:10;100036.66;;;19.03;94.69
33506;BME280;19843;51.040;13.782;2023-07-13T02:48:38;100038.69;;;19.13;95.35
33506;BME280;19843;51.040;13.782;2023-07-13T02:51:06;100041.94;;;18.80;97.76
33506;BME280;19843;51.040;13.782;2023-07-13T02:53:34;100030.59;;;19.15;95.21
33506;BME280;19843;51.040;13.782;2023-07-13T02:56:03;100039.94;;;18.77;98.44
33506;BME280;19843;51.040;13.782;2023-07-13T02:58:30;100039.13;;;18.69;100.00
33506;BME280;19843;51.040;13.782;2023-07-13T03:00:58;100046.00;;;18.86;99.38
33506;BME280;19843;51.040;13.782;2023-07-13T03:03:27;100052.41;;;19.11;97.23
33506;BME280;19843;51.040;13.782;2023-07-13T03:05:59;100056.44;;;19.28;94.26
33506;BME280;19843;51.040;13.782;2023-07-13T03:08:29;100044.75;;;19.05;97.55
33506;BME280;19843;51.040;13.782;2023-07-13T03:11:00;100048.41;;;18.95;99.03
33506;BME280;19843;51.040;13.782;2023-07-13T03:13:27;100050.00;;;19.13;96.68
33506;BME280;19843;51.040;13.782;2023-07-13T03:15:55;100052.38;;;19.22;95.75
33506;BME280;19843;51.040;13.782;2023-07-13T03:18:23;100054.81;;;19.24;94.93
33506;BME280;19843;51.040;13.782;2023-07-13T03:20:53;100046.75;;;19.11;95.85
33506;BME280;19843;51.040;13.782;2023-07-13T03:23:21;100050.03;;;18.74;98.92
33506;BME280;19843;51.040;13.782;2023-07-13T03:25:49;100048.41;;;19.09;96.19
33506;BME280;19843;51.040;13.782;2023-07-13T03:28:16;100041.47;;;19.21;95.29
33506;BME280;19843;51.040;13.782;2023-07-13T03:30:44;100055.22;;;19.26;95.02
33506;BME280;19843;51.040;13.782;2023-07-13T03:33:11;100054.41;;;19.29;94.57
33506;BME280;19843;51.040;13.782;2023-07-13T03:35:40;100055.59;;;19.35;94.34
33506;BME280;19843;51.040;13.782;2023-07-13T03:38:09;100050.31;;;19.37;94.66
33506;BME280;19843;51.040;13.782;2023-07-13T03:40:37;100064.47;;;19.37;92.88
33506;BME280;19843;51.040;13.782;2023-07-13T03:43:04;100057.16;;;19.50;92.31
33506;BME280;19843;51.040;13.782;2023-07-13T03:45:31;100061.66;;;19.33;92.33
33506;BME280;19843;51.040;13.782;2023-07-13T03:47:59;100061.28;;;19.17;94.64
33506;BME280;19843;51.040;13.782;2023-07-13T03:50:26;100072.19;;;19.26;94.22
33506;BME280;19843;51.040;13.782;2023-07-13T03:52:54;100066.91;;;19.35;93.34
33506;BME280;19843;51.040;13.782;2023-07-13T03:55:23;100074.16;;;19.47;94.33
33506;BME280;19843;51.040;13.782;2023-07-13T03:58:00;100082.28;;;19.37;90.47
33506;BME280;19843;51.040;13.782;2023-07-13T04:00:27;100079.09;;;19.07;94.79
33506;BME280;19843;51.040;13.782;2023-07-13T04:02:55;100077.81;;;19.47;92.27
33506;BME280;19843;51.040;13.782;2023-07-13T04:05:22;100088.66;;;19.59;90.72
33506;BME280;19843;51.040;13.782;2023-07-13T04:07:49;100081.00;;;19.71;90.00
33506;BME280;19843;51.040;13.782;2023-07-13T04:10:17;100089.41;;;19.85;90.27
33506;BME280;19843;51.040;13.782;2023-07-13T04:12:46;100100.44;;;19.47;91.65
33506;BME280;19843;51.040;13.782;2023-07-13T04:15:13;100107.34;;;19.35;94.31
33506;BME280;19843;51.040;13.782;2023-07-13T04:17:41;100106.00;;;19.79;92.17
33506;BME280;19843;51.040;13.782;2023-07-13T04:20:09;100112.38;;;20.08;89.23
33506;BME280;19843;51.040;13.782;2023-07-13T04:22:36;100107.41;;;20.27;87.76
33506;BME280;19843;51.040;13.782;2023-07-13T04:25:05;100111.81;;;20.35;86.79
33506;BME280;19843;51.040;13.782;2023-07-13T04:27:32;100106.97;;;20.32;87.27
33506;BME280;19843;51.040;13.782;2023-07-13T04:30:01;100106.50;;;20.40;85.28
33506;BME280;19843;51.040;13.782;2023-07-13T04:32:28;100113.81;;;20.41;87.69
33506;BME280;19843;51.040;13.782;2023-07-13T04:34:56;100103.31;;;20.31;86.45
33506;BME280;19843;51.040;13.782;2023-07-13T04:37:25;100104.47;;;20.41;85.54
33506;BME280;19843;51.040;13.782;2023-07-13T04:39:53;100100.72;;;19.92;87.67
33506;BME280;19843;51.040;13.782;2023-07-13T04:42:20;100104.34;;;19.96;88.11
33506;BME280;19843;51.040;13.782;2023-07-13T04:44:48;100102.16;;;20.25;86.31
33506;BME280;19843;51.040;13.782;2023-07-13T04:47:17;100112.31;;;20.19;87.15
33506;BME280;19843;51.040;13.782;2023-07-13T04:49:45;100108.69;;;20.15;88.77
33506;BME280;19843;51.040;13.782;2023-07-13T04:52:12;100104.47;;;20.41;86.54
33506;BME280;19843;51.040;13.782;2023-07-13T04:54:40;100112.22;;;20.37;86.01
33506;BME280;19843;51.040;13.782;2023-07-13T04:57:08;100117.84;;;20.48;85.92
33506;BME280;19843;51.040;13.782;2023-07-13T04:59:35;100114.41;;;20.74;84.24
33506;BME280;19843;51.040;13.782;2023-07-13T05:02:03;100116.78;;;20.79;84.14
33506;BME280;19843;51.040;13.782;2023-07-13T05:04:33;100124.22;;;19.82;85.88
33506;BME280;19843;51.040;13.782;2023-07-13T05:07:00;100126.28;;;19.71;86.91
33506;BME280;19843;51.040;13.782;2023-07-13T05:09:28;100128.88;;;20.28;84.10
33506;BME280;19843;51.040;13.782;2023-07-13T05:11:55;100127.41;;;20.71;83.59
33506;BME280;19843;51.040;13.782;2023-07-13T05:14:23;100129.34;;;21.27;80.39
33506;BME280;19843;51.040;13.782;2023-07-13T05:16:50;100115.91;;;21.34;79.58
33506;BME280;19843;51.040;13.782;2023-07-13T05:19:17;100122.81;;;21.71;77.90
33506;BME280;19843;51.040;13.782;2023-07-13T05:21:46;100118.25;;;20.98;79.78
33506;BME280;19843;51.040;13.782;2023-07-13T05:24:13;100114.03;;;21.58;78.38
33506;BME280;19843;51.040;13.782;2023-07-13T05:26:50;100116.66;;;22.10;76.27
33506;BME280;19843;51.040;13.782;2023-07-13T05:29:18;100123.59;;;22.67;73.62
33506;BME280;19843;51.040;13.782;2023-07-13T05:31:45;100119.72;;;21.58;77.08
33506;BME280;19843;51.040;13.782;2023-07-13T05:34:14;100121.09;;;21.43;79.59
33506;BME280;19843;51.040;13.782;2023-07-13T05:36:42;100129.06;;;21.14;81.18
33506;BME280;19843;51.040;13.782;2023-07-13T05:39:11;100127.69;;;22.05;77.00
33506;BME280;19843;51.040;13.782;2023-07-13T05:41:39;100135.44;;;22.01;75.80
33506;BME280;19843;51.040;13.782;2023-07-13T05:44:07;100127.53;;;21.85;76.59
33506;BME280;19843;51.040;13.782;2023-07-13T05:46:34;100127.22;;;21.79;76.17
33506;BME280;19843;51.040;13.782;2023-07-13T05:49:02;100128.56;;;21.98;75.73
33506;BME280;19843;51.040;13.782;2023-07-13T05:51:30;100127.94;;;21.83;76.66
33506;BME280;19843;51.040;13.782;2023-07-13T05:54:00;100126.88;;;22.04;76.86
33506;BME280;19843;51.040;13.782;2023-07-13T05:56:29;100127.22;;;22.13;77.19
33506;BME280;19843;51.040;13.782;2023-07-13T05:58:57;100121.09;;;22.69;74.10
33506;BME280;19843;51.040;13.782;2023-07-13T06:01:24;100117.91;;;22.94;72.18
33506;BME280;19843;51.040;13.782;2023-07-13T06:03:52;100118.75;;;22.91;71.31
33506;BME280;19843;51.040;13.782;2023-07-13T06:06:19;100111.88;;;22.88;67.52
33506;BME280;19843;51.040;13.782;2023-07-13T06:08:47;100120.25;;;22.45;67.99
33506;BME280;19843;51.040;13.782;2023-07-13T06:11:16;100125.09;;;21.49;72.80
33506;BME280;19843;51.040;13.782;2023-07-13T06:13:45;100125.88;;;21.87;70.52
33506;BME280;19843;51.040;13.782;2023-07-13T06:16:13;100129.66;;;22.42;68.40
33506;BME280;19843;51.040;13.782;2023-07-13T06:18:41;100140.50;;;22.20;70.70
33506;BME280;19843;51.040;13.782;2023-07-13T06:21:10;100135.34;;;22.42;67.31
33506;BME280;19843;51.040;13.782;2023-07-13T06:23:39;100139.22;;;23.52;65.48
33506;BME280;19843;51.040;13.782;2023-07-13T06:26:07;100149.00;;;23.51;63.79
33506;BME280;19843;51.040;13.782;2023-07-13T06:28:35;100151.94;;;23.24;64.46
33506;BME280;19843;51.040;13.782;2023-07-13T06:31:06;100147.00;;;24.12;59.70
33506;BME280;19843;51.040;13.782;2023-07-13T06:33:35;100143.66;;;24.17;60.49
33506;BME280;19843;51.040;13.782;2023-07-13T06:36:05;100135.09;;;24.37;59.06
33506;BME280;19843;51.040;13.782;2023-07-13T06:38:33;100138.63;;;22.94;62.21
33506;BME280;19843;51.040;13.782;2023-07-13T06:41:01;100142.63;;;23.44;60.50
33506;BME280;19843;51.040;13.782;2023-07-13T06:43:29;100140.53;;;23.24;62.39
33506;BME280;19843;51.040;13.782;2023-07-13T06:45:58;100136.28;;;23.80;59.89
33506;BME280;19843;51.040;13.782;2023-07-13T06:48:27;100149.75;;;23.99;58.25
33506;BME280;19843;51.040;13.782;2023-07-13T06:50:55;100153.66;;;23.65;60.34
33506;BME280;19843;51.040;13.782;2023-07-13T06:53:23;100159.22;;;23.02;62.08
33506;BME280;19843;51.040;13.782;2023-07-13T06:55:53;100161.75;;;22.96;62.06
33506;BME280;19843;51.040;13.782;2023-07-13T06:58:21;100165.91;;;23.15;62.42
33506;BME280;19843;51.040;13.782;2023-07-13T07:00:52;100171.84;;;23.01;61.79
33506;BME280;19843;51.040;13.782;2023-07-13T07:03:19;100164.25;;;22.64;64.16
33506;BME280;19843;51.040;13.782;2023-07-13T07:05:48;100172.03;;;22.33;64.48
33506;BME280;19843;51.040;13.782;2023-07-13T07:08:16;100172.16;;;23.07;62.56
33506;BME280;19843;51.040;13.782;2023-07-13T07:10:44;100179.59;;;23.24;59.32
33506;BME280;19843;51.040;13.782;2023-07-13T07:13:17;100180.34;;;24.35;56.76
33506;BME280;19843;51.040;13.782;2023-07-13T07:15:45;100176.88;;;23.64;55.58
33506;BME280;19843;51.040;13.782;2023-07-13T07:18:12;100185.97;;;23.79;55.87
33506;BME280;19843;51.040;13.782;2023-07-13T07:20:40;100180.13;;;23.86;56.42
33506;BME280;19843;51.040;13.782;2023-07-13T07:23:08;100181.22;;;24.12;55.24
33506;BME280;19843;51.040;13.782;2023-07-13T07:25:36;100172.91;;;24.41;55.36
33506;BME280;19843;51.040;13.782;2023-07-13T07:28:08;100178.66;;;24.57;52.21
33506;BME280;19843;51.040;13.782;2023-07-13T07:30:41;100174.72;;;24.51;50.47
33506;BME280;19843;51.040;13.782;2023-07-13T07:33:12;100173.25;;;24.43;50.46
33506;BME280;19843;51.040;13.782;2023-07-13T07:35:40;100175.38;;;24.19;49.58
33506;BME280;19843;51.040;13.782;2023-07-13T07:38:29;100167.94;;;25.46;49.39
33506;BME280;19843;51.040;13.782;2023-07-13T07:40:56;100167.22;;;26.29;49.46
33506;BME280;19843;51.040;13.782;2023-07-13T07:43:27;100164.09;;;26.91;47.80
33506;BME280;19843;51.040;13.782;2023-07-13T07:45:54;100155.97;;;26.51;46.70
33506;BME280;19843;51.040;13.782;2023-07-13T07:48:22;100169.50;;;24.66;51.37
33506;BME280;19843;51.040;13.782;2023-07-13T07:50:49;100169.63;;;25.11;47.81
33506;BME280;19843;51.040;13.782;2023-07-13T07:53:17;100168.03;;;25.10;43.81
33506;BME280;19843;51.040;13.782;2023-07-13T07:55:45;100164.44;;;25.39;44.35
33506;BME280;19843;51.040;13.782;2023-07-13T07:58:16;100175.94;;;24.30;47.32
33506;BME280;19843;51.040;13.782;2023-07-13T08:01:04;100168.81;;;24.42;47.53
33506;BME280;19843;51.040;13.782;2023-07-13T08:03:37;100161.63;;;25.68;44.80
33506;BME280;19843;51.040;13.782;2023-07-13T08:06:08;100164.34;;;25.42;44.23
33506;BME280;19843;51.040;13.782;2023-07-13T08:08:38;100169.28;;;25.09;46.46
33506;BME280;19843;51.040;13.782;2023-07-13T08:11:08;100170.19;;;25.22;45.27
33506;BME280;19843;51.040;13.782;2023-07-13T08:13:39;100178.09;;;25.64;44.39
33506;BME280;19843;51.040;13.782;2023-07-13T08:16:06;100178.44;;;26.11;43.36
33506;BME280;19843;51.040;13.782;2023-07-13T08:18:34;100185.53;;;25.28;46.55
33506;BME280;19843;51.040;13.782;2023-07-13T08:21:03;100186.88;;;24.71;43.13
33506;BME280;19843;51.040;13.782;2023-07-13T08:23:31;100194.09;;;25.45;43.33
33506;BME280;19843;51.040;13.782;2023-07-13T08:25:59;100193.94;;;25.36;44.33
33506;BME280;19843;51.040;13.782;2023-07-13T08:28:29;100188.69;;;26.09;44.03
33506;BME280;19843;51.040;13.782;2023-07-13T08:31:00;100179.53;;;25.56;42.93
33506;BME280;19843;51.040;13.782;2023-07-13T08:33:28;100193.78;;;25.88;44.15
33506;BME280;19843;51.040;13.782;2023-07-13T08:35:55;100177.63;;;27.03;41.78
33506;BME280;19843;51.040;13.782;2023-07-13T08:38:23;100185.03;;;26.08;41.58
33506;BME280;19843;51.040;13.782;2023-07-13T08:40:53;100184.03;;;27.33;41.06
33506;BME280;19843;51.040;13.782;2023-07-13T08:43:25;100182.44;;;26.81;41.96
33506;BME280;19843;51.040;13.782;2023-07-13T08:45:59;100181.84;;;25.61;44.64
33506;BME280;19843;51.040;13.782;2023-07-13T08:48:32;100187.38;;;26.26;44.90
33506;BME280;19843;51.040;13.782;2023-07-13T08:53:49;100179.66;;;27.89;40.03
33506;BME280;19843;51.040;13.782;2023-07-13T08:56:19;100172.91;;;26.46;43.58
33506;BME280;19843;51.040;13.782;2023-07-13T08:58:49;100172.16;;;26.84;42.72
33506;BME280;19843;51.040;13.782;2023-07-13T09:01:26;100188.16;;;26.55;43.07
33506;BME280;19843;51.040;13.782;2023-07-13T09:04:04;100190.00;;;25.29;46.39
33506;BME280;19843;51.040;13.782;2023-07-13T09:06:40;100190.13;;;25.88;43.93
33506;BME280;19843;51.040;13.782;2023-07-13T09:09:16;100192.16;;;26.45;41.60
33506;BME280;19843;51.040;13.782;2023-07-13T09:11:50;100192.03;;;26.49;41.50
33506;BME280;19843;51.040;13.782;2023-07-13T09:14:36;100195.44;;;26.02;40.38
33506;BME280;19843;51.040;13.782;2023-07-13T09:17:20;100195.00;;;26.58;41.80
33506;BME280;19843;51.040;13.782;2023-07-13T09:19:56;100197.47;;;26.30;40.83
33506;BME280;19843;51.040;13.782;2023-07-13T09:22:25;100198.16;;;27.15;40.80
33506;BME280;19843;51.040;13.782;2023-07-13T09:25:00;100203.31;;;27.80;38.61
33506;BME280;19843;51.040;13.782;2023-07-13T09:27:35;100201.56;;;26.84;39.09
33506;BME280;19843;51.040;13.782;2023-07-13T09:30:21;100205.16;;;25.59;41.71
33506;BME280;19843;51.040;13.782;2023-07-13T09:32:54;100203.59;;;25.87;41.64
33506;BME280;19843;51.040;13.782;2023-07-13T09:35:27;100202.50;;;25.97;43.56
33506;BME280;19843;51.040;13.782;2023-07-13T09:38:04;100206.03;;;26.60;43.05
33506;BME280;19843;51.040;13.782;2023-07-13T09:40:44;100212.34;;;26.25;42.61
33506;BME280;19843;51.040;13.782;2023-07-13T09:43:16;100207.38;;;26.68;41.21
33506;BME280;19843;51.040;13.782;2023-07-13T09:45:46;100199.56;;;25.68;43.59
33506;BME280;19843;51.040;13.782;2023-07-13T09:48:16;100210.94;;;26.17;42.42
33506;BME280;19843;51.040;13.782;2023-07-13T09:50:45;100219.88;;;25.74;44.19
33506;BME280;19843;51.040;13.782;2023-07-13T09:53:14;100224.03;;;26.02;43.72
33506;BME280;19843;51.040;13.782;2023-07-13T09:55:43;100222.47;;;25.52;43.08
33506;BME280;19843;51.040;13.782;2023-07-13T09:58:14;100225.25;;;26.72;41.71
33506;BME280;19843;51.040;13.782;2023-07-13T10:00:43;100227.59;;;27.15;40.98
33506;BME280;19843;51.040;13.782;2023-07-13T10:03:18;100217.00;;;26.61;39.68
33506;BME280;19843;51.040;13.782;2023-07-13T10:05:48;100222.56;;;25.81;43.39
33506;BME280;19843;51.040;13.782;2023-07-13T10:08:20;100219.84;;;26.19;41.49
33506;BME280;19843;51.040;13.782;2023-07-13T10:10:53;100226.19;;;26.81;40.68
33506;BME280;19843;51.040;13.782;2023-07-13T10:13:31;100226.00;;;27.14;40.26
33506;BME280;19843;51.040;13.782;2023-07-13T10:16:01;100229.94;;;26.24;39.76
33506;BME280;19843;51.040;13.782;2023-07-13T10:18:39;100233.38;;;25.73;41.86
33506;BME280;19843;51.040;13.782;2023-07-13T10:21:14;100225.41;;;26.68;40.52
33506;BME280;19843;51.040;13.782;2023-07-13T10:23:50;100229.09;;;28.15;38.14
33506;BME280;19843;51.040;13.782;2023-07-13T10:26:21;100214.75;;;27.45;38.27
33506;BME280;19843;51.040;13.782;2023-07-13T10:28:53;100222.63;;;26.77;39.26
33506;BME280;19843;51.040;13.782;2023-07-13T10:31:22;100227.69;;;27.50;40.04
33506;BME280;19843;51.040;13.782;2023-07-13T10:33:51;100222.19;;;27.90;38.37
33506;BME280;19843;51.040;13.782;2023-07-13T10:36:28;100220.81;;;26.84;39.13
33506;BME280;19843;51.040;13.782;2023-07-13T10:39:01;100222.38;;;27.61;40.94
33506;BME280;19843;51.040;13.782;2023-07-13T10:41:31;100228.63;;;27.21;39.51
33506;BME280;19843;51.040;13.782;2023-07-13T10:44:00;100214.22;;;27.72;39.12
33506;BME280;19843;51.040;13.782;2023-07-13T10:46:30;100210.81;;;28.65;37.25
33506;BME280;19843;51.040;13.782;2023-07-13T10:49:01;100214.91;;;27.16;38.06
33506;BME280;19843;51.040;13.782;2023-07-13T10:51:31;100220.44;;;26.56;39.73
33506;BME280;19843;51.040;13.782;2023-07-13T10:54:11;100213.94;;;28.14;38.16
33506;BME280;19843;51.040;13.782;2023-07-13T10:56:46;100198.88;;;27.53;40.51
33506;BME280;19843;51.040;13.782;2023-07-13T10:59:18;100203.88;;;27.27;40.20
33506;BME280;19843;51.040;13.782;2023-07-13T11:01:55;100212.69;;;27.20;38.86
33506;BME280;19843;51.040;13.782;2023-07-13T11:04:27;100198.25;;;28.28;38.40
33506;BME280;19843;51.040;13.782;2023-07-13T11:06:58;100198.66;;;27.73;37.75
33506;BME280;19843;51.040;13.782;2023-07-13T11:09:36;100207.50;;;26.77;38.14
33506;BME280;19843;51.040;13.782;2023-07-13T11:12:08;100202.53;;;28.23;38.32
33506;BME280;19843;51.040;13.782;2023-07-13T11:15:03;100204.38;;;27.95;36.91
33506;BME280;19843;51.040;13.782;2023-07-13T11:17:36;100186.69;;;29.25;34.78
33506;BME280;19843;51.040;13.782;2023-07-13T11:20:20;100198.72;;;28.70;36.01
33506;BME280;19843;51.040;13.782;2023-07-13T11:22:52;100197.13;;;28.03;34.83
33506;BME280;19843;51.040;13.782;2023-07-13T11:25:28;100204.53;;;28.89;35.26
33506;BME280;19843;51.040;13.782;2023-07-13T11:28:18;100199.19;;;27.68;37.50
33506;BME280;19843;51.040;13.782;2023-07-13T11:30:49;100191.38;;;27.81;37.17
33506;BME280;19843;51.040;13.782;2023-07-13T11:33:29;100182.88;;;28.35;37.36
33506;BME280;19843;51.040;13.782;2023-07-13T11:36:02;100193.47;;;29.09;36.83
33506;BME280;19843;51.040;13.782;2023-07-13T11:38:35;100195.34;;;28.41;36.49
33506;BME280;19843;51.040;13.782;2023-07-13T11:41:05;100199.72;;;29.17;36.17
33506;BME280;19843;51.040;13.782;2023-07-13T11:43:33;100200.47;;;28.68;35.57
33506;BME280;19843;51.040;13.782;2023-07-13T11:46:14;100198.16;;;28.53;36.54
33506;BME280;19843;51.040;13.782;2023-07-13T11:48:42;100201.88;;;27.50;37.84
33506;BME280;19843;51.040;13.782;2023-07-13T11:51:20;100199.31;;;27.65;36.14
33506;BME280;19843;51.040;13.782;2023-07-13T11:53:51;100198.06;;;27.66;36.86
33506;BME280;19843;51.040;13.782;2023-07-13T11:56:23;100195.69;;;28.74;35.93
33506;BME280;19843;51.040;13.782;2023-07-13T11:58:55;100182.91;;;28.44;37.55
33506;BME280;19843;51.040;13.782;2023-07-13T12:01:26;100189.44;;;26.80;39.22
33506;BME280;19843;51.040;13.782;2023-07-13T12:03:56;100195.97;;;26.39;38.48
33506;BME280;19843;51.040;13.782;2023-07-13T12:06:28;100195.28;;;27.02;38.12
33506;BME280;19843;51.040;13.782;2023-07-13T12:08:57;100186.75;;;26.47;38.51
33506;BME280;19843;51.040;13.782;2023-07-13T12:11:26;100189.91;;;27.64;40.69
33506;BME280;19843;51.040;13.782;2023-07-13T12:13:54;100184.94;;;26.66;38.94
33506;BME280;19843;51.040;13.782;2023-07-13T12:16:26;100185.09;;;26.34;39.80
33506;BME280;19843;51.040;13.782;2023-07-13T12:18:55;100186.19;;;26.52;38.84
33506;BME280;19843;51.040;13.782;2023-07-13T12:21:31;100179.56;;;27.79;38.93
33506;BME280;19843;51.040;13.782;2023-07-13T12:23:59;100183.56;;;27.82;38.29
33506;BME280;19843;51.040;13.782;2023-07-13T12:26:29;100182.59;;;27.63;39.02
33506;BME280;19843;51.040;13.782;2023-07-13T12:29:00;100174.78;;;26.78;38.11
33506;BME280;19843;51.040;13.782;2023-07-13T12:31:34;100175.13;;;27.18;38.18
33506;BME280;19843;51.040;13.782;2023-07-13T12:34:07;100181.44;;;27.73;36.90
33506;BME280;19843;51.040;13.782;2023-07-13T12:36:38;100172.78;;;28.08;35.97
33506;BME280;19843;51.040;13.782;2023-07-13T12:39:13;100178.31;;;27.20;38.22
33506;BME280;19843;51.040;13.782;2023-07-13T12:41:41;100170.41;;;26.86;37.46
33506;BME280;19843;51.040;13.782;2023-07-13T12:44:14;100167.69;;;27.08;37.52
33506;BME280;19843;51.040;13.782;2023-07-13T12:46:53;100173.63;;;27.61;36.69
33506;BME280;19843;51.040;13.782;2023-07-13T12:49:25;100184.47;;;28.67;36.01
33506;BME280;19843;51.040;13.782;2023-07-13T12:51:57;100178.53;;;28.08;35.68
33506;BME280;19843;51.040;13.782;2023-07-13T12:54:27;100180.38;;;27.67;37.73
33506;BME280;19843;51.040;13.782;2023-07-13T12:56:57;100178.28;;;27.80;36.21
33506;BME280;19843;51.040;13.782;2023-07-13T12:59:30;100180.84;;;26.93;36.53